createdAt,value
2023-04-28T00:01:04.966Z,4.18
2023-04-28T00:03:53.435Z,4.18
2023-04-28T00:06:40.190Z,4.40
2023-04-28T00:09:26.542Z,4.13
2023-04-28T00:12:12.833Z,4.53
2023-04-28T00:14:59.187Z,4.82
2023-04-28T00:17:45.590Z,4.82
2023-04-28T00:20:33.316Z,5.00
2023-04-28T00:23:19.629Z,5.20
2023-04-28T00:26:06.110Z,5.05
2023-04-28T00:28:52.400Z,5.93
2023-04-28T00:31:38.701Z,5.35
2023-04-28T00:34:25.069Z,5.65
2023-04-28T00:37:12.850Z,5.35
2023-04-28T00:39:58.997Z,5.82
2023-04-28T00:42:45.150Z,5.90
2023-04-28T00:45:31.775Z,5.88
2023-04-28T00:48:18.559Z,5.95
2023-04-28T00:51:06.647Z,5.72
2023-04-28T00:53:55.187Z,6.45
2023-04-28T00:56:41.735Z,6.13
2023-04-28T00:59:27.959Z,6.30
2023-04-28T01:02:17.549Z,5.82
2023-04-28T01:05:05.010Z,5.30
2023-04-28T01:07:52.361Z,5.60
2023-04-28T01:10:45.078Z,5.10
2023-04-28T01:16:26.900Z,5.40
2023-04-28T01:19:21.552Z,4.90
2023-04-28T01:22:10.265Z,5.40
2023-04-28T01:25:00.235Z,5.88
2023-04-28T01:27:46.782Z,5.03
2023-04-28T01:30:32.861Z,6.20
2023-04-28T01:33:18.851Z,5.80
2023-04-28T01:36:05.482Z,6.05
2023-04-28T01:38:51.893Z,5.57
2023-04-28T01:41:39.383Z,5.35
2023-04-28T01:44:26.265Z,6.15
2023-04-28T01:47:12.390Z,5.72
2023-04-28T01:49:59.001Z,5.75
2023-04-28T01:52:45.047Z,5.82
2023-04-28T01:55:31.023Z,5.28
2023-04-28T01:58:19.785Z,5.20
2023-04-28T02:01:06.784Z,5.63
2023-04-28T02:03:55.163Z,5.90
2023-04-28T02:06:43.148Z,5.43
2023-04-28T02:09:32.158Z,4.93
2023-04-28T02:12:18.517Z,5.85
2023-04-28T02:15:08.063Z,5.55
2023-04-28T02:17:54.318Z,5.68
2023-04-28T02:20:40.938Z,6.22
2023-04-28T02:23:27.716Z,6.65
2023-04-28T02:26:14.521Z,7.03
2023-04-28T02:29:01.485Z,7.68
2023-04-28T02:31:52.580Z,7.53
2023-04-28T02:34:39.095Z,6.18
2023-04-28T02:37:27.143Z,7.43
2023-04-28T02:40:14.550Z,6.72
2023-04-28T02:43:00.754Z,6.30
2023-04-28T02:45:47.233Z,5.70
2023-04-28T02:48:37.274Z,6.65
2023-04-28T02:51:23.736Z,5.70
2023-04-28T02:54:10.024Z,5.82
2023-04-28T02:56:57.751Z,5.18
2023-04-28T02:59:44.068Z,4.15
2023-04-28T03:02:30.187Z,4.68
2023-04-28T03:05:18.139Z,4.72
2023-04-28T03:08:04.889Z,4.60
2023-04-28T03:10:51.173Z,4.50
2023-04-28T03:13:37.397Z,4.38
2023-04-28T03:16:24.233Z,4.32
2023-04-28T03:19:10.945Z,3.58
2023-04-28T03:21:58.388Z,4.40
2023-04-28T03:24:44.532Z,4.43
2023-04-28T03:27:31.301Z,4.05
2023-04-28T03:30:18.039Z,4.25
2023-04-28T03:33:05.772Z,4.38
2023-04-28T03:35:53.557Z,4.65
2023-04-28T03:38:41.668Z,4.68
2023-04-28T03:41:28.331Z,4.20
2023-04-28T03:44:34.014Z,4.97
2023-04-28T03:47:21.313Z,4.57
2023-04-28T03:50:09.054Z,4.97
2023-04-28T03:52:55.268Z,4.53
2023-04-28T03:55:43.815Z,4.97
2023-04-28T03:58:32.673Z,4.93
2023-04-28T04:01:20.606Z,4.53
2023-04-28T04:04:08.353Z,4.65
2023-04-28T04:06:55.018Z,5.10
2023-04-28T04:09:41.678Z,5.05
2023-04-28T04:12:30.621Z,4.55
2023-04-28T04:15:17.338Z,5.40
2023-04-28T04:18:04.906Z,5.68
2023-04-28T04:21:06.128Z,4.90
2023-04-28T04:23:52.644Z,5.03
2023-04-28T04:26:39.102Z,4.57
2023-04-28T04:29:42.179Z,5.20
2023-04-28T04:32:32.275Z,5.72
2023-04-28T04:35:19.433Z,5.00
2023-04-28T04:38:07.361Z,5.47
2023-04-28T04:40:54.526Z,5.53
2023-04-28T04:43:40.956Z,6.20
2023-04-28T04:46:28.783Z,5.65
2023-04-28T04:49:15.503Z,5.90
2023-04-28T04:52:02.886Z,5.78
2023-04-28T04:54:49.426Z,5.88
2023-04-28T04:57:36.151Z,5.88
2023-04-28T05:00:29.169Z,5.93
2023-04-28T05:03:17.244Z,6.28
2023-04-28T05:06:04.274Z,6.93
2023-04-28T05:09:03.407Z,6.35
2023-04-28T05:11:52.472Z,6.38
2023-04-28T05:14:39.142Z,6.82
2023-04-28T05:17:25.797Z,12.75
2023-04-28T05:20:14.044Z,7.13
2023-04-28T05:23:00.510Z,7.03
2023-04-28T05:25:47.160Z,7.18
2023-04-28T05:28:34.372Z,7.78
2023-04-28T05:31:21.458Z,7.90
2023-04-28T05:34:07.876Z,8.15
2023-04-28T05:36:55.737Z,8.80
2023-04-28T05:39:45.088Z,9.00
2023-04-28T05:42:32.184Z,9.35
2023-04-28T05:45:18.742Z,9.93
2023-04-28T05:48:05.992Z,9.13
2023-04-28T05:50:52.704Z,10.10
2023-04-28T05:53:40.444Z,9.85
2023-04-28T05:56:26.773Z,9.60
2023-04-28T05:59:13.729Z,10.98
2023-04-28T06:02:02.776Z,10.02
2023-04-28T06:04:50.116Z,11.27
2023-04-28T06:07:37.446Z,10.57
2023-04-28T06:10:27.304Z,11.35
2023-04-28T06:13:14.677Z,12.15
2023-04-28T06:16:02.078Z,11.32
2023-04-28T06:18:49.688Z,12.48
2023-04-28T06:21:37.288Z,11.90
2023-04-28T06:24:23.589Z,11.73
2023-04-28T06:27:14.066Z,13.05
2023-04-28T06:30:00.304Z,13.43
2023-04-28T06:32:46.928Z,11.70
2023-04-28T06:35:35.750Z,12.27
2023-04-28T06:38:22.236Z,13.00
2023-04-28T06:41:08.570Z,11.85
2023-04-28T06:43:56.361Z,13.68
2023-04-28T06:46:49.447Z,12.98
2023-04-28T06:49:36.125Z,12.45
2023-04-28T06:52:27.069Z,13.05
2023-04-28T06:55:20.411Z,13.25
2023-04-28T06:58:06.834Z,13.43
2023-04-28T07:00:55.309Z,13.95
2023-04-28T07:03:45.557Z,13.40
2023-04-28T07:06:32.467Z,14.18
2023-04-28T07:09:18.676Z,14.02
2023-04-28T07:12:05.723Z,13.63
2023-04-28T07:14:51.918Z,12.85
2023-04-28T07:17:39.774Z,14.73
2023-04-28T07:20:26.434Z,13.63
2023-04-28T07:23:12.802Z,14.45
2023-04-28T07:25:59.311Z,12.90
2023-04-28T07:28:45.979Z,13.43
2023-04-28T07:31:32.536Z,14.77
2023-04-28T07:34:20.255Z,13.60
2023-04-28T07:37:07.590Z,13.90
2023-04-28T07:39:54.626Z,13.77
2023-04-28T07:42:41.769Z,14.23
2023-04-28T07:45:28.264Z,14.32
2023-04-28T07:48:14.695Z,14.35
2023-04-28T07:51:04.298Z,14.27
2023-04-28T07:53:51.273Z,15.02
2023-04-28T07:56:37.279Z,15.18
2023-04-28T07:59:23.670Z,14.73
2023-04-28T08:02:13.455Z,15.82
2023-04-28T08:05:00.486Z,16.80
2023-04-28T08:07:51.316Z,16.83
2023-04-28T08:10:38.189Z,16.58
2023-04-28T08:13:24.889Z,18.25
2023-04-28T08:16:11.690Z,17.67
2023-04-28T08:18:59.670Z,19.38
2023-04-28T08:21:46.384Z,19.92
2023-04-28T08:24:35.181Z,18.85
2023-04-28T08:27:23.513Z,18.33
2023-04-28T08:30:11.981Z,20.10
2023-04-28T08:32:58.568Z,19.60
2023-04-28T08:35:45.322Z,19.85
2023-04-28T08:38:32.047Z,20.58
2023-04-28T08:41:21.825Z,20.48
2023-04-28T08:44:09.990Z,19.67
2023-04-28T08:47:00.384Z,20.77
2023-04-28T08:49:50.368Z,18.88
2023-04-28T08:52:37.443Z,18.88
2023-04-28T08:55:25.316Z,17.33
2023-04-28T08:58:13.366Z,17.65
2023-04-28T09:00:59.764Z,17.02
2023-04-28T09:03:47.688Z,15.52
2023-04-28T09:06:36.506Z,16.35
2023-04-28T09:09:24.948Z,16.48
2023-04-28T09:12:12.768Z,15.82
2023-04-28T09:15:09.087Z,15.95
2023-04-28T09:17:56.515Z,17.60
2023-04-28T09:20:43.261Z,16.77
2023-04-28T09:23:29.614Z,16.63
2023-04-28T09:26:15.856Z,17.60
2023-04-28T09:29:13.707Z,16.63
2023-04-28T09:32:17.757Z,16.75
2023-04-28T09:35:07.312Z,16.02
2023-04-28T09:37:59.830Z,15.00
2023-04-28T09:40:57.788Z,15.20
2023-04-28T09:43:44.394Z,16.15
2023-04-28T09:46:30.925Z,16.02
2023-04-28T09:49:19.264Z,15.02
2023-04-28T09:52:13.662Z,17.55
2023-04-28T09:55:02.317Z,16.55
2023-04-28T09:57:50.666Z,16.85
2023-04-28T10:00:38.130Z,15.40
2023-04-28T10:03:29.085Z,15.80
2023-04-28T10:06:18.579Z,17.13
2023-04-28T10:09:06.613Z,17.58
2023-04-28T10:11:53.541Z,18.67
2023-04-28T10:14:40.895Z,19.00
2023-04-28T10:17:29.370Z,19.42
2023-04-28T10:20:16.952Z,19.35
2023-04-28T10:23:31.525Z,20.00
2023-04-28T10:30:37.618Z,18.95
2023-04-28T10:33:27.304Z,18.67
2023-04-28T10:36:50.898Z,20.02
2023-04-28T10:39:39.011Z,19.55
2023-04-28T10:42:54.311Z,19.45
2023-04-28T10:46:02.795Z,19.70
2023-04-28T10:48:57.056Z,19.25
2023-04-28T10:51:43.045Z,19.20
2023-04-28T10:54:30.526Z,19.17
2023-04-28T10:57:22.730Z,17.30
2023-04-28T11:00:36.673Z,17.17
2023-04-28T11:03:50.953Z,15.55
2023-04-28T11:06:42.705Z,10.95
2023-04-28T11:09:50.428Z,10.20
2023-04-28T11:12:38.095Z,10.10
2023-04-28T11:15:24.475Z,9.52
2023-04-28T11:18:18.380Z,9.63
2023-04-28T11:21:05.222Z,9.02
2023-04-28T11:23:52.625Z,9.75
2023-04-28T11:26:39.476Z,9.05
2023-04-28T11:29:35.164Z,10.30
2023-04-28T11:32:27.739Z,9.70
2023-04-28T11:35:14.359Z,8.35
2023-04-28T11:38:04.964Z,8.32
2023-04-28T11:40:58.369Z,8.02
2023-04-28T11:43:47.367Z,8.93
2023-04-28T11:46:35.544Z,8.27
2023-04-28T11:49:24.358Z,7.43
2023-04-28T11:52:11.971Z,5.50
2023-04-28T11:55:00.858Z,5.25
2023-04-28T11:57:47.157Z,5.32
2023-04-28T12:00:33.851Z,5.13
2023-04-28T12:03:21.975Z,5.50
2023-04-28T12:06:09.164Z,5.80
2023-04-28T12:08:55.710Z,5.10
2023-04-28T12:11:53.542Z,5.03
2023-04-28T12:14:56.788Z,3.58
2023-04-28T12:17:45.355Z,3.50
2023-04-28T12:20:37.992Z,3.47
2023-04-28T12:23:31.244Z,5.90
2023-04-28T12:26:26.460Z,3.97
2023-04-28T12:29:38.176Z,3.22
2023-04-28T12:32:39.744Z,2.97
2023-04-28T12:35:27.352Z,3.30
2023-04-28T12:38:15.902Z,2.58
2023-04-28T12:41:02.111Z,2.63
2023-04-28T12:43:48.720Z,2.95
2023-04-28T12:46:35.153Z,3.03
2023-04-28T12:49:21.721Z,2.88
2023-04-28T12:52:19.709Z,2.20
2023-04-28T12:55:09.228Z,2.10
2023-04-28T12:57:56.007Z,2.85
2023-04-28T13:00:42.953Z,2.53
2023-04-28T13:03:29.516Z,2.60
2023-04-28T13:06:15.707Z,3.42
2023-04-28T13:09:03.503Z,3.50
2023-04-28T13:11:53.510Z,4.47
2023-04-28T13:14:39.927Z,4.07
2023-04-28T13:17:27.143Z,4.10
2023-04-28T13:20:13.783Z,4.63
2023-04-28T13:23:00.030Z,4.30
2023-04-28T13:25:46.520Z,3.80
2023-04-28T13:28:34.078Z,4.72
2023-04-28T13:31:20.944Z,4.28
2023-04-28T13:34:08.824Z,4.20
2023-04-28T13:36:55.537Z,4.53
2023-04-28T13:39:42.048Z,4.65
2023-04-28T13:42:29.106Z,5.13
2023-04-28T13:45:17.711Z,4.60
2023-04-28T13:48:04.765Z,4.30
2023-04-28T13:50:52.088Z,4.30
2023-04-28T13:53:41.975Z,4.90
2023-04-28T13:56:28.536Z,5.47
2023-04-28T13:59:14.979Z,5.53
2023-04-28T14:02:02.553Z,6.00
2023-04-28T14:04:50.727Z,6.22
2023-04-28T14:07:37.677Z,6.40
2023-04-28T14:10:24.149Z,6.25
2023-04-28T14:13:10.947Z,5.03
2023-04-28T14:15:59.633Z,5.68
2023-04-28T14:18:47.890Z,6.00
2023-04-28T14:21:34.520Z,5.57
2023-04-28T14:24:21.513Z,6.95
2023-04-28T14:27:08.206Z,5.88
2023-04-28T14:29:54.629Z,7.85
2023-04-28T14:32:41.449Z,8.75
2023-04-28T14:35:31.812Z,12.00
2023-04-28T14:38:18.799Z,12.93
2023-04-28T14:41:05.034Z,14.80
2023-04-28T14:43:51.538Z,13.60
2023-04-28T14:46:38.700Z,15.93
2023-04-28T14:49:27.494Z,15.88
2023-04-28T14:52:15.748Z,18.30
2023-04-28T14:55:03.111Z,15.80
2023-04-28T14:57:49.194Z,16.48
2023-04-28T15:00:36.397Z,13.90
2023-04-28T15:03:22.771Z,14.25
2023-04-28T15:06:09.430Z,13.13
2023-04-28T15:08:57.528Z,13.57
2023-04-28T15:11:43.807Z,16.27
2023-04-28T15:14:30.411Z,13.68
2023-04-28T15:17:16.962Z,13.27
2023-04-28T15:20:03.938Z,12.80
2023-04-28T15:22:50.552Z,13.48
2023-04-28T15:25:38.476Z,13.00
2023-04-28T15:28:25.043Z,16.20
2023-04-28T15:31:11.780Z,15.55
2023-04-28T15:33:58.238Z,16.13
2023-04-28T15:36:44.767Z,15.00
2023-04-28T15:39:31.988Z,14.30
2023-04-28T15:42:19.733Z,14.75
2023-04-28T15:45:07.739Z,14.13
2023-04-28T15:47:55.178Z,14.73
2023-04-28T15:50:41.924Z,14.50
2023-04-28T15:53:28.542Z,14.27
2023-04-28T15:56:15.086Z,22.92
2023-04-28T15:59:03.519Z,14.27
2023-04-28T16:01:49.956Z,15.35
2023-04-28T16:04:40.280Z,15.02
2023-04-28T16:07:26.873Z,16.23
2023-04-28T16:10:14.569Z,17.02
2023-04-28T16:13:05.198Z,15.65
2023-04-28T16:15:53.109Z,13.98
2023-04-28T16:18:39.425Z,13.60
2023-04-28T16:21:25.843Z,12.35
2023-04-28T16:24:12.734Z,11.40
2023-04-28T16:26:59.399Z,12.88
2023-04-28T16:29:45.885Z,12.77
2023-04-28T16:32:37.237Z,12.77
2023-04-28T16:35:26.722Z,11.95
2023-04-28T16:38:14.824Z,11.75
2023-04-28T16:41:01.168Z,10.85
2023-04-28T16:43:47.669Z,11.85
2023-04-28T16:46:33.954Z,10.45
2023-04-28T16:49:21.869Z,9.52
2023-04-28T16:52:08.972Z,8.68
2023-04-28T16:54:55.394Z,7.45
2023-04-28T16:57:41.863Z,10.13
2023-04-28T17:00:28.063Z,6.38
2023-04-28T17:03:14.465Z,5.45
2023-04-28T17:06:04.436Z,7.45
2023-04-28T17:08:50.596Z,3.30
2023-04-28T17:11:37.650Z,3.65
2023-04-28T17:14:23.991Z,4.47
2023-04-28T17:17:10.745Z,4.28
2023-04-28T17:19:58.712Z,5.25
2023-04-28T17:22:46.720Z,5.22
2023-04-28T17:25:33.070Z,5.65
2023-04-28T17:28:19.462Z,5.45
2023-04-28T17:31:06.433Z,5.72
2023-04-28T17:33:54.182Z,5.72
2023-04-28T17:36:41.186Z,6.50
2023-04-28T17:39:29.032Z,6.30
2023-04-28T17:42:16.581Z,5.85
2023-04-28T17:45:04.512Z,5.68
2023-04-28T17:47:51.107Z,4.50
2023-04-28T17:50:37.293Z,4.28
2023-04-28T17:53:23.722Z,4.13
2023-04-28T17:56:11.539Z,4.07
2023-04-28T17:58:58.148Z,3.38
2023-04-28T18:01:44.492Z,2.63
2023-04-28T18:04:31.324Z,2.90
2023-04-28T18:07:18.218Z,2.85
2023-04-28T18:10:05.692Z,2.80
2023-04-28T18:12:54.249Z,4.20
2023-04-28T18:15:41.367Z,4.45
2023-04-28T18:18:30.229Z,5.10
2023-04-28T18:21:18.055Z,7.55
2023-04-28T18:24:04.194Z,11.73
2023-04-28T18:26:50.925Z,12.70
2023-04-28T18:29:38.521Z,12.93
2023-04-28T18:32:25.176Z,20.40
2023-04-28T18:35:11.591Z,14.95
2023-04-28T18:38:00.975Z,16.80
2023-04-28T18:40:47.514Z,16.65
2023-04-28T18:43:34.702Z,18.67
2023-04-28T18:46:22.662Z,19.17
2023-04-28T18:49:09.635Z,21.20
2023-04-28T18:51:55.927Z,19.80
2023-04-28T18:54:42.391Z,21.63
2023-04-28T18:57:29.015Z,22.88
2023-04-28T19:00:15.368Z,22.50
2023-04-28T19:03:04.157Z,23.80
2023-04-28T19:05:50.879Z,24.20
2023-04-28T19:08:38.939Z,24.13
2023-04-28T19:11:25.746Z,24.52
2023-04-28T19:14:12.068Z,24.00
2023-04-28T19:16:58.577Z,25.73
2023-04-28T19:19:46.245Z,24.95
2023-04-28T19:22:34.857Z,24.67
2023-04-28T19:25:21.176Z,24.45
2023-04-28T19:28:08.263Z,25.38
2023-04-28T19:30:54.777Z,26.23
2023-04-28T19:33:41.538Z,24.83
2023-04-28T19:36:29.309Z,26.52
2023-04-28T19:39:16.344Z,27.23
2023-04-28T19:42:03.052Z,26.90
2023-04-28T19:44:54.285Z,26.05
2023-04-28T19:47:40.939Z,26.60
2023-04-28T19:50:26.872Z,26.70
2023-04-28T19:53:14.876Z,26.73
2023-04-28T19:56:02.103Z,28.20
2023-04-28T19:58:48.697Z,27.90
2023-04-28T20:01:35.422Z,26.88
2023-04-28T20:04:22.348Z,28.98
2023-04-28T20:07:10.335Z,31.02
2023-04-28T20:09:58.100Z,29.85
2023-04-28T20:12:44.610Z,28.58
2023-04-28T20:15:31.390Z,31.25
2023-04-28T20:18:17.801Z,29.95
2023-04-28T20:21:04.305Z,29.85
2023-04-28T20:23:50.700Z,30.40
2023-04-28T20:26:38.593Z,32.15
2023-04-28T20:29:25.181Z,31.75
2023-04-28T20:32:11.691Z,29.98
2023-04-28T20:34:58.074Z,31.65
2023-04-28T20:37:44.594Z,31.98
2023-04-28T20:40:31.129Z,33.97
2023-04-28T20:43:18.893Z,32.38
2023-04-28T20:46:09.947Z,34.85
2023-04-28T20:48:56.549Z,34.08
2023-04-28T20:51:45.210Z,35.60
2023-04-28T20:54:32.615Z,33.65
2023-04-28T20:57:18.774Z,34.10
2023-04-28T21:00:08.053Z,35.75
2023-04-28T21:02:54.681Z,36.53
2023-04-28T21:05:41.345Z,35.72
2023-04-28T21:08:29.736Z,35.00
2023-04-28T21:11:17.549Z,35.55
2023-04-28T22:00:10.880Z,27.58
2023-04-28T22:03:01.087Z,26.83
2023-04-28T22:05:48.170Z,26.35
2023-04-28T22:08:34.353Z,26.75
2023-04-28T22:11:20.440Z,27.20
2023-04-28T22:14:06.475Z,26.63
